sensor_id;sensor_type;location;lat;lon;timestamp;P1;durP1;ratioP1;P2;durP2;ratioP2
36829;SDS011;22767;47.328;9.640;2022-10-16T00:01:28;12.73;;;1.40;;
36829;SDS011;22767;47.328;9.640;2022-10-16T00:04:15;7.05;;;1.02;;
36829;SDS011;22767;47.328;9.640;2022-10-16T00:07:02;3.63;;;1.17;;
36829;SDS011;22767;47.328;9.640;2022-10-16T00:09:48;4.63;;;1.30;;
36829;SDS011;22767;47.328;9.640;2022-10-16T00:12:35;3.45;;;0.93;;
36829;SDS011;22767;47.328;9.640;2022-10-16T00:15:21;5.32;;;1.52;;
36829;SDS011;22767;47.328;9.640;2022-10-16T00:18:07;4.18;;;0.98;;
36829;SDS011;22767;47.328;9.640;2022-10-16T00:20:54;2.67;;;0.90;;
36829;SDS011;22767;47.328;9.640;2022-10-16T00:23:41;5.53;;;1.10;;
36829;SDS011;22767;47.328;9.640;2022-10-16T00:26:28;6.57;;;1.00;;
36829;SDS011;22767;47.328;9.640;2022-10-16T00:29:14;0.90;;;0.70;;
36829;SDS011;22767;47.328;9.640;2022-10-16T00:32:01;2.55;;;1.15;;
36829;SDS011;22767;47.328;9.640;2022-10-16T00:34:47;1.90;;;1.00;;
36829;SDS011;22767;47.328;9.640;2022-10-16T00:37:34;3.33;;;0.98;;
36829;SDS011;22767;47.328;9.640;2022-10-16T00:40:20;2.30;;;0.82;;
36829;SDS011;22767;47.328;9.640;2022-10-16T00:51:48;8.40;;;1.23;;
36829;SDS011;22767;47.328;9.640;2022-10-16T00:54:35;5.55;;;0.90;;
36829;SDS011;22767;47.328;9.640;2022-10-16T00:57:22;2.35;;;0.95;;
36829;SDS011;22767;47.328;9.640;2022-10-16T01:00:09;5.10;;;0.90;;
36829;SDS011;22767;47.328;9.640;2022-10-16T01:03:00;2.00;;;1.00;;
36829;SDS011;22767;47.328;9.640;2022-10-16T01:05:49;6.53;;;1.33;;
36829;SDS011;22767;47.328;9.640;2022-10-16T01:11:38;1.95;;;0.80;;
36829;SDS011;22767;47.328;9.640;2022-10-16T01:14:30;5.07;;;0.77;;
36829;SDS011;22767;47.328;9.640;2022-10-16T01:17:20;2.65;;;0.88;;
36829;SDS011;22767;47.328;9.640;2022-10-16T01:20:14;3.10;;;0.70;;
36829;SDS011;22767;47.328;9.640;2022-10-16T01:26:23;3.60;;;0.93;;
36829;SDS011;22767;47.328;9.640;2022-10-16T01:29:18;5.15;;;1.00;;
36829;SDS011;22767;47.328;9.640;2022-10-16T01:32:31;3.80;;;1.00;;
36829;SDS011;22767;47.328;9.640;2022-10-16T01:35:21;3.20;;;0.80;;
36829;SDS011;22767;47.328;9.640;2022-10-16T01:38:14;1.13;;;0.80;;
36829;SDS011;22767;47.328;9.640;2022-10-16T01:41:24;2.25;;;0.75;;
36829;SDS011;22767;47.328;9.640;2022-10-16T01:44:14;2.75;;;0.95;;
36829;SDS011;22767;47.328;9.640;2022-10-16T01:47:02;2.78;;;0.82;;
36829;SDS011;22767;47.328;9.640;2022-10-16T01:49:48;1.88;;;0.55;;
36829;SDS011;22767;47.328;9.640;2022-10-16T01:52:35;3.45;;;0.70;;
36829;SDS011;22767;47.328;9.640;2022-10-16T01:55:28;3.15;;;0.95;;
36829;SDS011;22767;47.328;9.640;2022-10-16T01:58:15;0.47;;;0.43;;
36829;SDS011;22767;47.328;9.640;2022-10-16T02:01:02;1.75;;;0.80;;
36829;SDS011;22767;47.328;9.640;2022-10-16T02:03:50;3.35;;;0.98;;
36829;SDS011;22767;47.328;9.640;2022-10-16T02:06:38;1.77;;;1.20;;
36829;SDS011;22767;47.328;9.640;2022-10-16T02:09:25;5.28;;;1.00;;
36829;SDS011;22767;47.328;9.640;2022-10-16T02:12:30;2.88;;;0.85;;
36829;SDS011;22767;47.328;9.640;2022-10-16T02:15:17;4.53;;;0.70;;
36829;SDS011;22767;47.328;9.640;2022-10-16T02:18:04;3.30;;;0.70;;
36829;SDS011;22767;47.328;9.640;2022-10-16T02:20:59;1.25;;;0.50;;
36829;SDS011;22767;47.328;9.640;2022-10-16T02:23:50;2.15;;;0.57;;
36829;SDS011;22767;47.328;9.640;2022-10-16T02:26:46;0.88;;;0.43;;
36829;SDS011;22767;47.328;9.640;2022-10-16T02:29:34;0.98;;;0.50;;
36829;SDS011;22767;47.328;9.640;2022-10-16T02:32:23;1.90;;;0.57;;
36829;SDS011;22767;47.328;9.640;2022-10-16T02:35:10;2.28;;;0.50;;
36829;SDS011;22767;47.328;9.640;2022-10-16T02:37:57;2.95;;;0.60;;
36829;SDS011;22767;47.328;9.640;2022-10-16T02:40:44;2.85;;;0.60;;
36829;SDS011;22767;47.328;9.640;2022-10-16T02:43:30;2.35;;;0.60;;
36829;SDS011;22767;47.328;9.640;2022-10-16T02:46:18;3.13;;;0.60;;
36829;SDS011;22767;47.328;9.640;2022-10-16T02:49:05;4.43;;;0.60;;
36829;SDS011;22767;47.328;9.640;2022-10-16T02:51:51;3.50;;;0.80;;
36829;SDS011;22767;47.328;9.640;2022-10-16T02:54:38;3.38;;;0.98;;
36829;SDS011;22767;47.328;9.640;2022-10-16T02:57:24;1.95;;;0.70;;
36829;SDS011;22767;47.328;9.640;2022-10-16T03:00:11;2.92;;;0.80;;
36829;SDS011;22767;47.328;9.640;2022-10-16T03:02:58;8.55;;;1.05;;
36829;SDS011;22767;47.328;9.640;2022-10-16T03:05:44;0.98;;;0.60;;
36829;SDS011;22767;47.328;9.640;2022-10-16T03:08:31;4.32;;;0.90;;
36829;SDS011;22767;47.328;9.640;2022-10-16T03:11:17;1.95;;;0.55;;
36829;SDS011;22767;47.328;9.640;2022-10-16T03:14:04;4.20;;;0.88;;
36829;SDS011;22767;47.328;9.640;2022-10-16T03:16:50;4.35;;;0.82;;
36829;SDS011;22767;47.328;9.640;2022-10-16T03:19:37;1.45;;;0.55;;
36829;SDS011;22767;47.328;9.640;2022-10-16T03:22:23;1.17;;;0.57;;
36829;SDS011;22767;47.328;9.640;2022-10-16T03:25:09;2.65;;;0.65;;
36829;SDS011;22767;47.328;9.640;2022-10-16T03:27:56;2.25;;;0.55;;
36829;SDS011;22767;47.328;9.640;2022-10-16T03:30:43;6.68;;;0.82;;
36829;SDS011;22767;47.328;9.640;2022-10-16T03:33:29;3.63;;;0.55;;
36829;SDS011;22767;47.328;9.640;2022-10-16T03:36:15;2.67;;;0.70;;
36829;SDS011;22767;47.328;9.640;2022-10-16T03:39:02;6.05;;;0.63;;
36829;SDS011;22767;47.328;9.640;2022-10-16T03:41:48;6.95;;;0.90;;
36829;SDS011;22767;47.328;9.640;2022-10-16T03:44:35;0.88;;;0.52;;
36829;SDS011;22767;47.328;9.640;2022-10-16T03:47:21;1.85;;;0.65;;
36829;SDS011;22767;47.328;9.640;2022-10-16T03:50:08;2.38;;;0.60;;
36829;SDS011;22767;47.328;9.640;2022-10-16T03:52:55;5.15;;;0.80;;
36829;SDS011;22767;47.328;9.640;2022-10-16T03:55:42;4.03;;;0.70;;
36829;SDS011;22767;47.328;9.640;2022-10-16T03:58:28;3.67;;;0.90;;
36829;SDS011;22767;47.328;9.640;2022-10-16T04:01:15;5.60;;;0.60;;
36829;SDS011;22767;47.328;9.640;2022-10-16T04:04:01;2.03;;;0.65;;
36829;SDS011;22767;47.328;9.640;2022-10-16T04:06:47;4.75;;;0.60;;
36829;SDS011;22767;47.328;9.640;2022-10-16T04:09:34;2.38;;;0.50;;
36829;SDS011;22767;47.328;9.640;2022-10-16T04:12:20;0.55;;;0.45;;
36829;SDS011;22767;47.328;9.640;2022-10-16T04:15:07;3.53;;;0.70;;
36829;SDS011;22767;47.328;9.640;2022-10-16T04:17:53;2.60;;;0.65;;
36829;SDS011;22767;47.328;9.640;2022-10-16T04:20:40;6.75;;;0.70;;
36829;SDS011;22767;47.328;9.640;2022-10-16T04:23:27;1.17;;;0.50;;
36829;SDS011;22767;47.328;9.640;2022-10-16T04:26:13;1.17;;;0.68;;
36829;SDS011;22767;47.328;9.640;2022-10-16T04:29:00;2.40;;;0.60;;
36829;SDS011;22767;47.328;9.640;2022-10-16T04:31:46;1.45;;;0.43;;
36829;SDS011;22767;47.328;9.640;2022-10-16T04:34:33;0.40;;;0.40;;
36829;SDS011;22767;47.328;9.640;2022-10-16T04:37:23;2.10;;;0.38;;
36829;SDS011;22767;47.328;9.640;2022-10-16T04:40:09;0.45;;;0.38;;
36829;SDS011;22767;47.328;9.640;2022-10-16T04:42:56;2.50;;;0.50;;
36829;SDS011;22767;47.328;9.640;2022-10-16T04:45:42;4.68;;;0.50;;
36829;SDS011;22767;47.328;9.640;2022-10-16T04:48:29;2.20;;;0.60;;
36829;SDS011;22767;47.328;9.640;2022-10-16T04:51:15;2.58;;;0.40;;
36829;SDS011;22767;47.328;9.640;2022-10-16T04:54:02;1.40;;;0.45;;
36829;SDS011;22767;47.328;9.640;2022-10-16T04:56:48;0.88;;;0.50;;
36829;SDS011;22767;47.328;9.640;2022-10-16T04:59:36;0.80;;;0.40;;
36829;SDS011;22767;47.328;9.640;2022-10-16T05:02:23;2.47;;;0.63;;
36829;SDS011;22767;47.328;9.640;2022-10-16T05:05:09;0.80;;;0.50;;
36829;SDS011;22767;47.328;9.640;2022-10-16T05:07:56;1.30;;;0.50;;
36829;SDS011;22767;47.328;9.640;2022-10-16T05:10:42;1.15;;;0.50;;
36829;SDS011;22767;47.328;9.640;2022-10-16T05:13:29;1.50;;;0.50;;
36829;SDS011;22767;47.328;9.640;2022-10-16T05:16:15;1.98;;;0.80;;
36829;SDS011;22767;47.328;9.640;2022-10-16T05:19:02;1.75;;;0.68;;
36829;SDS011;22767;47.328;9.640;2022-10-16T05:21:49;8.93;;;0.80;;
36829;SDS011;22767;47.328;9.640;2022-10-16T05:24:35;4.03;;;0.63;;
36829;SDS011;22767;47.328;9.640;2022-10-16T05:27:22;2.50;;;0.52;;
36829;SDS011;22767;47.328;9.640;2022-10-16T05:30:08;0.68;;;0.40;;
36829;SDS011;22767;47.328;9.640;2022-10-16T05:32:55;5.55;;;0.70;;
36829;SDS011;22767;47.328;9.640;2022-10-16T05:35:41;0.82;;;0.30;;
36829;SDS011;22767;47.328;9.640;2022-10-16T05:38:29;0.52;;;0.43;;
36829;SDS011;22767;47.328;9.640;2022-10-16T05:41:15;1.23;;;0.50;;
36829;SDS011;22767;47.328;9.640;2022-10-16T05:44:06;1.55;;;0.75;;
36829;SDS011;22767;47.328;9.640;2022-10-16T05:46:53;2.55;;;0.70;;
36829;SDS011;22767;47.328;9.640;2022-10-16T05:49:39;2.50;;;0.60;;
36829;SDS011;22767;47.328;9.640;2022-10-16T05:52:26;1.63;;;0.63;;
36829;SDS011;22767;47.328;9.640;2022-10-16T05:55:12;4.28;;;0.80;;
36829;SDS011;22767;47.328;9.640;2022-10-16T05:57:59;2.25;;;0.70;;
36829;SDS011;22767;47.328;9.640;2022-10-16T06:00:52;5.15;;;0.80;;
36829;SDS011;22767;47.328;9.640;2022-10-16T06:03:38;0.73;;;0.57;;
36829;SDS011;22767;47.328;9.640;2022-10-16T06:06:26;2.47;;;0.50;;
36829;SDS011;22767;47.328;9.640;2022-10-16T06:09:13;4.30;;;0.60;;
36829;SDS011;22767;47.328;9.640;2022-10-16T06:11:59;2.97;;;1.00;;
36829;SDS011;22767;47.328;9.640;2022-10-16T06:14:46;2.15;;;0.77;;
36829;SDS011;22767;47.328;9.640;2022-10-16T06:17:32;2.30;;;0.60;;
36829;SDS011;22767;47.328;9.640;2022-10-16T06:20:19;1.65;;;0.63;;
36829;SDS011;22767;47.328;9.640;2022-10-16T06:23:05;0.75;;;0.57;;
36829;SDS011;22767;47.328;9.640;2022-10-16T06:25:51;0.93;;;0.60;;
36829;SDS011;22767;47.328;9.640;2022-10-16T06:28:38;0.77;;;0.35;;
36829;SDS011;22767;47.328;9.640;2022-10-16T06:31:25;1.95;;;0.60;;
36829;SDS011;22767;47.328;9.640;2022-10-16T06:34:13;1.65;;;0.57;;
36829;SDS011;22767;47.328;9.640;2022-10-16T06:36:59;2.38;;;0.50;;
36829;SDS011;22767;47.328;9.640;2022-10-16T06:39:46;1.30;;;0.80;;
36829;SDS011;22767;47.328;9.640;2022-10-16T06:42:32;4.28;;;0.70;;
36829;SDS011;22767;47.328;9.640;2022-10-16T06:45:18;0.65;;;0.50;;
36829;SDS011;22767;47.328;9.640;2022-10-16T06:48:05;0.63;;;0.60;;
36829;SDS011;22767;47.328;9.640;2022-10-16T06:51:02;0.52;;;0.52;;
36829;SDS011;22767;47.328;9.640;2022-10-16T06:53:49;1.95;;;0.60;;
36829;SDS011;22767;47.328;9.640;2022-10-16T06:56:36;0.57;;;0.57;;
36829;SDS011;22767;47.328;9.640;2022-10-16T06:59:23;3.08;;;0.73;;
36829;SDS011;22767;47.328;9.640;2022-10-16T07:02:09;2.95;;;0.57;;
36829;SDS011;22767;47.328;9.640;2022-10-16T07:04:56;1.45;;;0.73;;
36829;SDS011;22767;47.328;9.640;2022-10-16T07:07:42;0.65;;;0.65;;
36829;SDS011;22767;47.328;9.640;2022-10-16T07:10:28;4.18;;;0.73;;
36829;SDS011;22767;47.328;9.640;2022-10-16T07:13:15;1.55;;;0.70;;
36829;SDS011;22767;47.328;9.640;2022-10-16T07:16:20;1.63;;;0.82;;
36829;SDS011;22767;47.328;9.640;2022-10-16T07:19:07;4.53;;;0.65;;
36829;SDS011;22767;47.328;9.640;2022-10-16T07:21:54;2.03;;;0.68;;
36829;SDS011;22767;47.328;9.640;2022-10-16T07:24:41;1.60;;;0.73;;
36829;SDS011;22767;47.328;9.640;2022-10-16T07:27:28;1.75;;;0.60;;
36829;SDS011;22767;47.328;9.640;2022-10-16T07:30:15;1.30;;;0.50;;
36829;SDS011;22767;47.328;9.640;2022-10-16T07:33:01;0.73;;;0.68;;
36829;SDS011;22767;47.328;9.640;2022-10-16T07:35:48;0.75;;;0.75;;
36829;SDS011;22767;47.328;9.640;2022-10-16T07:38:35;6.28;;;0.68;;
36829;SDS011;22767;47.328;9.640;2022-10-16T07:41:21;2.70;;;0.70;;
36829;SDS011;22767;47.328;9.640;2022-10-16T07:44:08;1.60;;;0.73;;
36829;SDS011;22767;47.328;9.640;2022-10-16T07:46:54;1.65;;;0.90;;
36829;SDS011;22767;47.328;9.640;2022-10-16T07:49:41;1.63;;;0.55;;
36829;SDS011;22767;47.328;9.640;2022-10-16T07:52:27;1.02;;;0.70;;
36829;SDS011;22767;47.328;9.640;2022-10-16T07:55:13;3.15;;;0.93;;
36829;SDS011;22767;47.328;9.640;2022-10-16T07:58:00;1.80;;;0.70;;
36829;SDS011;22767;47.328;9.640;2022-10-16T08:00:46;3.00;;;1.02;;
36829;SDS011;22767;47.328;9.640;2022-10-16T08:03:33;0.70;;;0.70;;
36829;SDS011;22767;47.328;9.640;2022-10-16T08:06:20;1.92;;;0.93;;
36829;SDS011;22767;47.328;9.640;2022-10-16T08:09:07;1.63;;;0.55;;
36829;SDS011;22767;47.328;9.640;2022-10-16T08:11:53;3.47;;;0.80;;
36829;SDS011;22767;47.328;9.640;2022-10-16T08:14:40;2.65;;;0.60;;
36829;SDS011;22767;47.328;9.640;2022-10-16T08:17:26;2.45;;;0.80;;
36829;SDS011;22767;47.328;9.640;2022-10-16T08:20:13;1.30;;;0.68;;
36829;SDS011;22767;47.328;9.640;2022-10-16T08:22:59;3.13;;;0.75;;
36829;SDS011;22767;47.328;9.640;2022-10-16T08:25:46;2.88;;;0.82;;
36829;SDS011;22767;47.328;9.640;2022-10-16T08:28:32;3.10;;;0.90;;
36829;SDS011;22767;47.328;9.640;2022-10-16T08:31:19;1.27;;;0.75;;
36829;SDS011;22767;47.328;9.640;2022-10-16T08:34:06;1.25;;;0.68;;
36829;SDS011;22767;47.328;9.640;2022-10-16T08:36:53;1.00;;;0.60;;
36829;SDS011;22767;47.328;9.640;2022-10-16T08:39:40;0.82;;;0.80;;
36829;SDS011;22767;47.328;9.640;2022-10-16T08:51:32;1.15;;;0.70;;
36829;SDS011;22767;47.328;9.640;2022-10-16T08:54:31;7.43;;;0.90;;
36829;SDS011;22767;47.328;9.640;2022-10-16T08:57:20;2.30;;;0.65;;
36829;SDS011;22767;47.328;9.640;2022-10-16T09:00:12;7.43;;;1.70;;
36829;SDS011;22767;47.328;9.640;2022-10-16T09:03:04;0.60;;;0.60;;
36829;SDS011;22767;47.328;9.640;2022-10-16T09:23:18;2.25;;;0.80;;
36829;SDS011;22767;47.328;9.640;2022-10-16T09:26:05;2.92;;;0.90;;
36829;SDS011;22767;47.328;9.640;2022-10-16T09:28:52;2.97;;;1.23;;
36829;SDS011;22767;47.328;9.640;2022-10-16T09:31:39;0.95;;;0.95;;
36829;SDS011;22767;47.328;9.640;2022-10-16T09:34:30;1.80;;;0.70;;
36829;SDS011;22767;47.328;9.640;2022-10-16T09:37:18;3.28;;;0.70;;
36829;SDS011;22767;47.328;9.640;2022-10-16T09:40:06;2.50;;;0.70;;
36829;SDS011;22767;47.328;9.640;2022-10-16T09:45:55;1.70;;;0.70;;
36829;SDS011;22767;47.328;9.640;2022-10-16T09:48:47;1.33;;;0.80;;
36829;SDS011;22767;47.328;9.640;2022-10-16T09:51:35;2.50;;;1.00;;
36829;SDS011;22767;47.328;9.640;2022-10-16T09:54:21;3.35;;;0.63;;
36829;SDS011;22767;47.328;9.640;2022-10-16T09:57:10;1.77;;;0.77;;
36829;SDS011;22767;47.328;9.640;2022-10-16T09:59:58;1.95;;;0.60;;
36829;SDS011;22767;47.328;9.640;2022-10-16T10:02:45;1.90;;;0.80;;
36829;SDS011;22767;47.328;9.640;2022-10-16T10:05:31;0.90;;;0.65;;
36829;SDS011;22767;47.328;9.640;2022-10-16T10:08:17;1.25;;;0.80;;
36829;SDS011;22767;47.328;9.640;2022-10-16T10:11:04;2.85;;;0.70;;
36829;SDS011;22767;47.328;9.640;2022-10-16T10:13:51;2.25;;;0.80;;
36829;SDS011;22767;47.328;9.640;2022-10-16T10:16:37;1.20;;;0.82;;
36829;SDS011;22767;47.328;9.640;2022-10-16T10:19:24;4.28;;;0.93;;
36829;SDS011;22767;47.328;9.640;2022-10-16T10:22:17;3.65;;;0.90;;
36829;SDS011;22767;47.328;9.640;2022-10-16T10:28:03;0.88;;;0.63;;
36829;SDS011;22767;47.328;9.640;2022-10-16T10:36:32;1.00;;;0.77;;
36829;SDS011;22767;47.328;9.640;2022-10-16T10:39:27;1.25;;;0.88;;
36829;SDS011;22767;47.328;9.640;2022-10-16T10:45:21;2.95;;;1.00;;
36829;SDS011;22767;47.328;9.640;2022-10-16T10:50:58;3.53;;;1.27;;
36829;SDS011;22767;47.328;9.640;2022-10-16T11:05:27;2.35;;;0.80;;
36829;SDS011;22767;47.328;9.640;2022-10-16T11:08:23;1.08;;;0.90;;
36829;SDS011;22767;47.328;9.640;2022-10-16T11:11:20;5.72;;;0.90;;
36829;SDS011;22767;47.328;9.640;2022-10-16T11:14:30;2.67;;;1.00;;
36829;SDS011;22767;47.328;9.640;2022-10-16T11:17:18;1.17;;;1.00;;
36829;SDS011;22767;47.328;9.640;2022-10-16T11:26:00;3.53;;;0.90;;
36829;SDS011;22767;47.328;9.640;2022-10-16T11:28:48;1.42;;;0.90;;
36829;SDS011;22767;47.328;9.640;2022-10-16T11:31:39;2.72;;;1.00;;
36829;SDS011;22767;47.328;9.640;2022-10-16T11:34:39;3.95;;;0.80;;
36829;SDS011;22767;47.328;9.640;2022-10-16T11:37:36;3.80;;;1.10;;
36829;SDS011;22767;47.328;9.640;2022-10-16T11:40:26;1.73;;;0.80;;
36829;SDS011;22767;47.328;9.640;2022-10-16T11:43:21;1.33;;;0.77;;
36829;SDS011;22767;47.328;9.640;2022-10-16T11:46:10;3.30;;;0.73;;
36829;SDS011;22767;47.328;9.640;2022-10-16T11:49:14;1.23;;;1.00;;
36829;SDS011;22767;47.328;9.640;2022-10-16T11:52:13;0.68;;;0.68;;
36829;SDS011;22767;47.328;9.640;2022-10-16T11:57:56;1.98;;;0.93;;
36829;SDS011;22767;47.328;9.640;2022-10-16T12:00:47;1.23;;;0.50;;
36829;SDS011;22767;47.328;9.640;2022-10-16T12:03:41;1.33;;;1.05;;
36829;SDS011;22767;47.328;9.640;2022-10-16T12:06:37;2.65;;;0.80;;
36829;SDS011;22767;47.328;9.640;2022-10-16T12:12:27;1.08;;;0.80;;
36829;SDS011;22767;47.328;9.640;2022-10-16T12:18:07;6.40;;;0.98;;
36829;SDS011;22767;47.328;9.640;2022-10-16T12:21:06;1.13;;;1.00;;
36829;SDS011;22767;47.328;9.640;2022-10-16T12:23:56;1.20;;;0.90;;
36829;SDS011;22767;47.328;9.640;2022-10-16T12:26:44;1.05;;;0.80;;
36829;SDS011;22767;47.328;9.640;2022-10-16T12:29:36;5.18;;;0.98;;
36829;SDS011;22767;47.328;9.640;2022-10-16T12:35:20;2.35;;;0.70;;
36829;SDS011;22767;47.328;9.640;2022-10-16T12:38:08;0.88;;;0.88;;
36829;SDS011;22767;47.328;9.640;2022-10-16T12:41:02;1.42;;;0.82;;
36829;SDS011;22767;47.328;9.640;2022-10-16T12:43:49;1.88;;;1.38;;
36829;SDS011;22767;47.328;9.640;2022-10-16T12:46:37;2.65;;;1.00;;
36829;SDS011;22767;47.328;9.640;2022-10-16T12:52:27;3.65;;;0.75;;
36829;SDS011;22767;47.328;9.640;2022-10-16T12:55:15;2.63;;;0.85;;
36829;SDS011;22767;47.328;9.640;2022-10-16T13:06:30;1.00;;;0.60;;
36829;SDS011;22767;47.328;9.640;2022-10-16T13:15:24;1.63;;;0.68;;
36829;SDS011;22767;47.328;9.640;2022-10-16T13:24:09;1.02;;;0.85;;
36829;SDS011;22767;47.328;9.640;2022-10-16T13:27:18;1.60;;;0.80;;
36829;SDS011;22767;47.328;9.640;2022-10-16T13:35:49;1.85;;;0.95;;
36829;SDS011;22767;47.328;9.640;2022-10-16T13:38:36;1.50;;;0.93;;
36829;SDS011;22767;47.328;9.640;2022-10-16T13:41:23;1.17;;;0.68;;
36829;SDS011;22767;47.328;9.640;2022-10-16T13:44:12;0.65;;;0.65;;
36829;SDS011;22767;47.328;9.640;2022-10-16T13:47:00;2.80;;;1.02;;
36829;SDS011;22767;47.328;9.640;2022-10-16T13:49:46;2.00;;;0.98;;
36829;SDS011;22767;47.328;9.640;2022-10-16T13:52:33;1.75;;;1.02;;
36829;SDS011;22767;47.328;9.640;2022-10-16T13:55:20;2.30;;;1.10;;
36829;SDS011;22767;47.328;9.640;2022-10-16T13:58:13;3.78;;;1.10;;
36829;SDS011;22767;47.328;9.640;2022-10-16T14:01:04;2.15;;;1.27;;
36829;SDS011;22767;47.328;9.640;2022-10-16T14:03:51;2.60;;;1.30;;
36829;SDS011;22767;47.328;9.640;2022-10-16T14:06:41;1.08;;;0.95;;
36829;SDS011;22767;47.328;9.640;2022-10-16T14:09:29;1.30;;;1.20;;
36829;SDS011;22767;47.328;9.640;2022-10-16T14:12:15;2.30;;;1.10;;
36829;SDS011;22767;47.328;9.640;2022-10-16T14:15:02;1.77;;;1.00;;
36829;SDS011;22767;47.328;9.640;2022-10-16T14:17:50;6.90;;;2.03;;
36829;SDS011;22767;47.328;9.640;2022-10-16T14:20:36;2.05;;;1.73;;
36829;SDS011;22767;47.328;9.640;2022-10-16T14:23:28;4.18;;;1.50;;
36829;SDS011;22767;47.328;9.640;2022-10-16T14:26:16;2.83;;;1.40;;
36829;SDS011;22767;47.328;9.640;2022-10-16T14:29:08;1.85;;;1.40;;
36829;SDS011;22767;47.328;9.640;2022-10-16T14:31:57;1.20;;;1.08;;
36829;SDS011;22767;47.328;9.640;2022-10-16T14:34:52;1.70;;;1.38;;
36829;SDS011;22767;47.328;9.640;2022-10-16T14:37:39;4.07;;;1.67;;
36829;SDS011;22767;47.328;9.640;2022-10-16T14:40:27;3.83;;;1.70;;
36829;SDS011;22767;47.328;9.640;2022-10-16T14:43:15;3.72;;;1.90;;
36829;SDS011;22767;47.328;9.640;2022-10-16T14:46:16;3.05;;;1.65;;
36829;SDS011;22767;47.328;9.640;2022-10-16T14:49:24;3.30;;;1.38;;
36829;SDS011;22767;47.328;9.640;2022-10-16T14:52:10;4.28;;;1.63;;
36829;SDS011;22767;47.328;9.640;2022-10-16T14:54:57;1.98;;;1.30;;
36829;SDS011;22767;47.328;9.640;2022-10-16T14:57:43;3.03;;;1.50;;
36829;SDS011;22767;47.328;9.640;2022-10-16T15:00:30;4.75;;;1.60;;
36829;SDS011;22767;47.328;9.640;2022-10-16T15:03:17;1.33;;;1.23;;
36829;SDS011;22767;47.328;9.640;2022-10-16T15:06:03;3.35;;;1.30;;
36829;SDS011;22767;47.328;9.640;2022-10-16T15:08:53;1.40;;;1.30;;
36829;SDS011;22767;47.328;9.640;2022-10-16T15:11:40;3.28;;;1.48;;
36829;SDS011;22767;47.328;9.640;2022-10-16T15:14:27;1.60;;;0.98;;
36829;SDS011;22767;47.328;9.640;2022-10-16T15:17:13;1.50;;;1.30;;
36829;SDS011;22767;47.328;9.640;2022-10-16T15:20:00;3.13;;;1.40;;
36829;SDS011;22767;47.328;9.640;2022-10-16T15:22:46;3.25;;;1.50;;
36829;SDS011;22767;47.328;9.640;2022-10-16T15:25:34;4.22;;;1.38;;
36829;SDS011;22767;47.328;9.640;2022-10-16T15:28:21;2.05;;;1.48;;
36829;SDS011;22767;47.328;9.640;2022-10-16T15:31:08;4.50;;;1.73;;
36829;SDS011;22767;47.328;9.640;2022-10-16T15:33:54;2.60;;;2.20;;
36829;SDS011;22767;47.328;9.640;2022-10-16T15:36:46;4.65;;;2.80;;
36829;SDS011;22767;47.328;9.640;2022-10-16T15:39:33;4.95;;;2.83;;
36829;SDS011;22767;47.328;9.640;2022-10-16T15:42:19;4.85;;;2.25;;
36829;SDS011;22767;47.328;9.640;2022-10-16T15:45:06;2.58;;;1.83;;
36829;SDS011;22767;47.328;9.640;2022-10-16T15:47:52;6.25;;;1.70;;
36829;SDS011;22767;47.328;9.640;2022-10-16T15:50:39;3.25;;;1.55;;
36829;SDS011;22767;47.328;9.640;2022-10-16T15:53:26;1.52;;;1.40;;
36829;SDS011;22767;47.328;9.640;2022-10-16T15:56:13;3.80;;;1.33;;
36829;SDS011;22767;47.328;9.640;2022-10-16T15:58:59;2.97;;;1.70;;
36829;SDS011;22767;47.328;9.640;2022-10-16T16:01:47;3.45;;;1.90;;
36829;SDS011;22767;47.328;9.640;2022-10-16T16:04:33;4.28;;;2.28;;
36829;SDS011;22767;47.328;9.640;2022-10-16T16:07:20;6.75;;;2.00;;
36829;SDS011;22767;47.328;9.640;2022-10-16T16:10:07;6.05;;;2.22;;
36829;SDS011;22767;47.328;9.640;2022-10-16T16:12:54;2.42;;;1.95;;
36829;SDS011;22767;47.328;9.640;2022-10-16T16:15:40;6.00;;;2.50;;
36829;SDS011;22767;47.328;9.640;2022-10-16T16:18:27;3.78;;;2.15;;
36829;SDS011;22767;47.328;9.640;2022-10-16T16:21:14;9.90;;;2.53;;
36829;SDS011;22767;47.328;9.640;2022-10-16T16:24:00;7.65;;;2.53;;
36829;SDS011;22767;47.328;9.640;2022-10-16T16:26:52;5.07;;;2.90;;
36829;SDS011;22767;47.328;9.640;2022-10-16T16:29:39;5.03;;;2.75;;
36829;SDS011;22767;47.328;9.640;2022-10-16T16:32:26;4.82;;;2.50;;
36829;SDS011;22767;47.328;9.640;2022-10-16T16:35:13;6.32;;;2.70;;
36829;SDS011;22767;47.328;9.640;2022-10-16T16:37:59;5.53;;;2.55;;
36829;SDS011;22767;47.328;9.640;2022-10-16T16:40:46;6.60;;;2.53;;
36829;SDS011;22767;47.328;9.640;2022-10-16T16:43:32;6.80;;;2.47;;
36829;SDS011;22767;47.328;9.640;2022-10-16T16:46:19;5.63;;;2.20;;
36829;SDS011;22767;47.328;9.640;2022-10-16T16:49:06;4.63;;;1.83;;
36829;SDS011;22767;47.328;9.640;2022-10-16T16:51:53;4.85;;;2.10;;
36829;SDS011;22767;47.328;9.640;2022-10-16T16:54:39;5.47;;;2.55;;
36829;SDS011;22767;47.328;9.640;2022-10-16T16:57:26;4.72;;;2.50;;
36829;SDS011;22767;47.328;9.640;2022-10-16T17:00:13;7.50;;;2.28;;
36829;SDS011;22767;47.328;9.640;2022-10-16T17:03:00;8.43;;;2.33;;
36829;SDS011;22767;47.328;9.640;2022-10-16T17:05:59;7.75;;;2.13;;
36829;SDS011;22767;47.328;9.640;2022-10-16T17:08:47;6.70;;;2.78;;
36829;SDS011;22767;47.328;9.640;2022-10-16T17:11:33;6.00;;;2.40;;
36829;SDS011;22767;47.328;9.640;2022-10-16T17:14:20;4.10;;;2.72;;
36829;SDS011;22767;47.328;9.640;2022-10-16T17:17:06;9.07;;;2.75;;
36829;SDS011;22767;47.328;9.640;2022-10-16T17:19:53;7.50;;;3.00;;
36829;SDS011;22767;47.328;9.640;2022-10-16T17:22:40;7.13;;;2.45;;
36829;SDS011;22767;47.328;9.640;2022-10-16T17:25:27;6.40;;;2.17;;
36829;SDS011;22767;47.328;9.640;2022-10-16T17:28:13;7.35;;;3.35;;
36829;SDS011;22767;47.328;9.640;2022-10-16T17:31:11;6.35;;;3.28;;
36829;SDS011;22767;47.328;9.640;2022-10-16T17:33:58;4.78;;;2.20;;
36829;SDS011;22767;47.328;9.640;2022-10-16T17:36:45;7.28;;;2.90;;
36829;SDS011;22767;47.328;9.640;2022-10-16T17:39:32;7.10;;;2.85;;
36829;SDS011;22767;47.328;9.640;2022-10-16T17:42:19;4.53;;;1.90;;
36829;SDS011;22767;47.328;9.640;2022-10-16T17:45:06;6.38;;;2.15;;
36829;SDS011;22767;47.328;9.640;2022-10-16T17:47:54;4.18;;;2.17;;
36829;SDS011;22767;47.328;9.640;2022-10-16T17:50:41;9.93;;;2.70;;
36829;SDS011;22767;47.328;9.640;2022-10-16T17:53:28;8.13;;;3.22;;
36829;SDS011;22767;47.328;9.640;2022-10-16T17:56:15;3.75;;;2.30;;
36829;SDS011;22767;47.328;9.640;2022-10-16T17:59:02;10.93;;;3.90;;
36829;SDS011;22767;47.328;9.640;2022-10-16T18:01:49;8.02;;;3.03;;
36829;SDS011;22767;47.328;9.640;2022-10-16T18:04:36;5.60;;;2.10;;
36829;SDS011;22767;47.328;9.640;2022-10-16T18:07:23;7.82;;;3.40;;
36829;SDS011;22767;47.328;9.640;2022-10-16T18:10:10;6.55;;;2.75;;
36829;SDS011;22767;47.328;9.640;2022-10-16T18:12:56;5.35;;;2.60;;
36829;SDS011;22767;47.328;9.640;2022-10-16T18:15:43;8.40;;;2.95;;
36829;SDS011;22767;47.328;9.640;2022-10-16T18:18:30;9.60;;;3.25;;
36829;SDS011;22767;47.328;9.640;2022-10-16T18:21:18;7.47;;;2.80;;
36829;SDS011;22767;47.328;9.640;2022-10-16T18:24:05;11.25;;;3.15;;
36829;SDS011;22767;47.328;9.640;2022-10-16T18:26:52;9.45;;;3.40;;
36829;SDS011;22767;47.328;9.640;2022-10-16T18:29:43;4.80;;;2.80;;
36829;SDS011;22767;47.328;9.640;2022-10-16T18:32:29;11.10;;;2.40;;
36829;SDS011;22767;47.328;9.640;2022-10-16T18:35:16;7.35;;;2.25;;
36829;SDS011;22767;47.328;9.640;2022-10-16T18:38:03;5.05;;;2.65;;
36829;SDS011;22767;47.328;9.640;2022-10-16T18:40:51;8.13;;;3.03;;
36829;SDS011;22767;47.328;9.640;2022-10-16T18:43:37;7.22;;;2.00;;
36829;SDS011;22767;47.328;9.640;2022-10-16T18:46:24;10.20;;;3.08;;
36829;SDS011;22767;47.328;9.640;2022-10-16T18:49:11;4.78;;;2.65;;
36829;SDS011;22767;47.328;9.640;2022-10-16T18:51:58;11.98;;;4.22;;